LKSN weather

Slaný Airport
Slaný, Central Bohemian Region, Czech Republic

Public forecast

Using degrees Celsius for public forecast. Weather courtesy of forecast.io.

Closest aviation weather report (METAR) to Slaný Airport

Closest report is Václav Havel Airport Prague, 9.6 nm (17.8 km) SE. Retrieved 2019/12/16 02:30 UTC (0 seconds ago):

LKPR 160230Z 15006KT CAVOK 05/02 Q1013 NOSIG

Closest aviation forecast (TAF) to Slaný Airport

Closest forecast is Václav Havel Airport Prague, 9.6 nm (17.8 km) SE. Retrieved 2019-12-16 00:06 UTC (2 hours ago):

TAF LKPR 152300Z 1600/1706 19008KT CAVOK TEMPO 1600/1606 9999 -RA BKN022 BECMG 1620/1622 5000 BR OVC008 BECMG 1700/1702 1200 BR OVC004 TEMPO 1702/1706 0700 FG BKN002